Aviation Digital Data Service (ADDS)

Output produced by METARs form (0654 UTC 20 March 2019)
found at http://www.aviationweather.gov/metar/data/
 
METAR text: VTCL 200600Z 27004KT 200V350 9999 FEW025 36/18 Q1010 NOSIG
Conditions at: VTCL (LAMPANG , TH) observed 0600 UTC 20 March 2019
Temperature: 36.0°C (97°F)
Dewpoint: 18.0°C (64°F) [RH = 35%]
Pressure (altimeter): 29.82 inches Hg (1010.0 mb)
Winds: from the W (270 degrees) at 5 MPH (4 knots; 2.1 m/s)
Visibility: 6 or more miles (10+ km)
Ceiling: at least 12,000 feet AGL
Clouds: few clouds at 2500 feet AGL
Weather: no significant weather observed at this time

METAR text: VTCL 200500Z 25005KT 160V300 9999 FEW025 35/17 Q1012 NOSIG
Conditions at: VTCL (LAMPANG , TH) observed 0500 UTC 20 March 2019
Temperature: 35.0°C (95°F)
Dewpoint: 17.0°C (63°F) [RH = 34%]
Pressure (altimeter): 29.88 inches Hg (1012.0 mb)
Winds: from the WSW (250 degrees) at 6 MPH (5 knots; 2.6 m/s)
Visibility: 6 or more miles (10+ km)
Ceiling: at least 12,000 feet AGL
Clouds: few clouds at 2500 feet AGL
Weather: no significant weather observed at this time

METAR text: VTCL 200400Z 20005KT 140V270 7000 NSC 34/18 Q1013 NOSIG
Conditions at: VTCL (LAMPANG , TH) observed 0400 UTC 20 March 2019
Temperature: 34.0°C (93°F)
Dewpoint: 18.0°C (64°F) [RH = 39%]
Pressure (altimeter): 29.91 inches Hg (1013.0 mb)
Winds: from the SSW (200 degrees) at 6 MPH (5 knots; 2.6 m/s)
Visibility: 4 miles ( 7 km)
Ceiling: at least 12,000 feet AGL
Clouds: sky clear below 12,000 feet AGL
Weather: no significant weather observed at this time

METAR text: VTCL 200300Z 20004KT 140V240 6000 NSC 32/20 Q1013 NOSIG
Conditions at: VTCL (LAMPANG , TH) observed 0300 UTC 20 March 2019
Temperature: 32.0°C (90°F)
Dewpoint: 20.0°C (68°F) [RH = 49%]
Pressure (altimeter): 29.91 inches Hg (1013.0 mb)
Winds: from the SSW (200 degrees) at 5 MPH (4 knots; 2.1 m/s)
Visibility: 4 miles ( 6 km)
Ceiling: at least 12,000 feet AGL
Clouds: sky clear below 12,000 feet AGL
Weather: no significant weather observed at this time

METAR text: VTCL 200200Z 00000KT 6000 NSC 30/20 Q1013 NOSIG
Conditions at: VTCL (LAMPANG , TH) observed 0200 UTC 20 March 2019
Temperature: 30.0°C (86°F)
Dewpoint: 20.0°C (68°F) [RH = 55%]
Pressure (altimeter): 29.91 inches Hg (1013.0 mb)
Winds: calm
Visibility: 4 miles ( 6 km)
Ceiling: at least 12,000 feet AGL
Clouds: sky clear below 12,000 feet AGL
Weather: no significant weather observed at this time

METAR text: VTCL 200100Z 00000KT 6000 NSC 25/20 Q1012 NOSIG
Conditions at: VTCL (LAMPANG , TH) observed 0100 UTC 20 March 2019
Temperature: 25.0°C (77°F)
Dewpoint: 20.0°C (68°F) [RH = 74%]
Pressure (altimeter): 29.88 inches Hg (1012.0 mb)
Winds: calm
Visibility: 4 miles ( 6 km)
Ceiling: at least 12,000 feet AGL
Clouds: sky clear below 12,000 feet AGL
Weather: no significant weather observed at this time

METAR text: VTCL 200000Z 00000KT 7000 NSC 21/19 Q1011 NOSIG
Conditions at: VTCL (LAMPANG , TH) observed 0000 UTC 20 March 2019
Temperature: 21.0°C (70°F)
Dewpoint: 19.0°C (66°F) [RH = 88%]
Pressure (altimeter): 29.85 inches Hg (1011.0 mb)
Winds: calm
Visibility: 4 miles ( 7 km)
Ceiling: at least 12,000 feet AGL
Clouds: sky clear below 12,000 feet AGL
Weather: no significant weather observed at this time

METAR text: VTCL 192300Z 00000KT 8000 NSC 21/19 Q1010 NOSIG
Conditions at: VTCL (LAMPANG , TH) observed 2300 UTC 19 March 2019
Temperature: 21.0°C (70°F)
Dewpoint: 19.0°C (66°F) [RH = 88%]
Pressure (altimeter): 29.82 inches Hg (1010.0 mb)
Winds: calm
Visibility: 5 miles ( 8 km)
Ceiling: at least 12,000 feet AGL
Clouds: sky clear below 12,000 feet AGL
Weather: no significant weather observed at this time

METAR text: VTCL 191200Z 17004KT 140V200 9999 FEW040 32/19 Q1007 NOSIG
Conditions at: VTCL (LAMPANG , TH) observed 1200 UTC 19 March 2019
Temperature: 32.0°C (90°F)
Dewpoint: 19.0°C (66°F) [RH = 46%]
Pressure (altimeter): 29.73 inches Hg (1007.0 mb)
Winds: from the S (170 degrees) at 5 MPH (4 knots; 2.1 m/s)
Visibility: 6 or more miles (10+ km)
Ceiling: at least 12,000 feet AGL
Clouds: few clouds at 4000 feet AGL
Weather: no significant weather observed at this time

METAR text: VTCL 191100Z 16006KT 120V200 9999 FEW040 34/19 Q1006 NOSIG
Conditions at: VTCL (LAMPANG , TH) observed 1100 UTC 19 March 2019
Temperature: 34.0°C (93°F)
Dewpoint: 19.0°C (66°F) [RH = 41%]
Pressure (altimeter): 29.70 inches Hg (1006.0 mb)
Winds: from the SSE (160 degrees) at 7 MPH (6 knots; 3.1 m/s)
Visibility: 6 or more miles (10+ km)
Ceiling: at least 12,000 feet AGL
Clouds: few clouds at 4000 feet AGL
Weather: no significant weather observed at this time

METAR text: VTCL 191000Z 16003KT 100V230 9999 FEW040 SCT100 36/18 Q1006 NOSIG
Conditions at: VTCL (LAMPANG , TH) observed 1000 UTC 19 March 2019
Temperature: 36.0°C (97°F)
Dewpoint: 18.0°C (64°F) [RH = 35%]
Pressure (altimeter): 29.70 inches Hg (1006.0 mb)
Winds: from the SSE (160 degrees) at 3 MPH (3 knots; 1.5 m/s)
Visibility: 6 or more miles (10+ km)
Ceiling: at least 12,000 feet AGL
Clouds: few clouds at 4000 feet AGL
scattered clouds at 10000 feet AGL
Weather: no significant weather observed at this time

METAR text: VTCL 190900Z 01004KT 280V080 9999 FEW040 SCT100 37/19 Q1006 NOSIG
Conditions at: VTCL (LAMPANG , TH) observed 0900 UTC 19 March 2019
Temperature: 37.0°C (99°F)
Dewpoint: 19.0°C (66°F) [RH = 35%]
Pressure (altimeter): 29.70 inches Hg (1006.0 mb)
Winds: from the N (10 degrees) at 5 MPH (4 knots; 2.1 m/s)
Visibility: 6 or more miles (10+ km)
Ceiling: at least 12,000 feet AGL
Clouds: few clouds at 4000 feet AGL
scattered clouds at 10000 feet AGL
Weather: no significant weather observed at this time

METAR text: VTCL 190800Z 36006KT 320V100 9000 FEW040 37/17 Q1007 NOSIG
Conditions at: VTCL (LAMPANG , TH) observed 0800 UTC 19 March 2019
Temperature: 37.0°C (99°F)
Dewpoint: 17.0°C (63°F) [RH = 31%]
Pressure (altimeter): 29.73 inches Hg (1007.0 mb)
Winds: from the N (360 degrees) at 7 MPH (6 knots; 3.1 m/s)
Visibility: 6 miles ( 9 km)
Ceiling: at least 12,000 feet AGL
Clouds: few clouds at 4000 feet AGL
Weather: no significant weather observed at this time

METAR text: VTCL 190700Z 22004KT 140V290 7000 FEW040 37/18 Q1008 NOSIG
Conditions at: VTCL (LAMPANG , TH) observed 0700 UTC 19 March 2019
Temperature: 37.0°C (99°F)
Dewpoint: 18.0°C (64°F) [RH = 33%]
Pressure (altimeter): 29.76 inches Hg (1008.0 mb)
Winds: from the SW (220 degrees) at 5 MPH (4 knots; 2.1 m/s)
Visibility: 4 miles ( 7 km)
Ceiling: at least 12,000 feet AGL
Clouds: few clouds at 4000 feet AGL
Weather: no significant weather observed at this time

METAR text: VTCL 190600Z 24004KT 150V300 7000 NSC 36/18 Q1010 NOSIG
Conditions at: VTCL (LAMPANG , TH) observed 0600 UTC 19 March 2019
Temperature: 36.0°C (97°F)
Dewpoint: 18.0°C (64°F) [RH = 35%]
Pressure (altimeter): 29.82 inches Hg (1010.0 mb)
Winds: from the WSW (240 degrees) at 5 MPH (4 knots; 2.1 m/s)
Visibility: 4 miles ( 7 km)
Ceiling: at least 12,000 feet AGL
Clouds: sky clear below 12,000 feet AGL
Weather: no significant weather observed at this time

METAR text: VTCL 190500Z VRB02KT 6000 NSC 35/11 Q1011 NOSIG
Conditions at: VTCL (LAMPANG , TH) observed 0500 UTC 19 March 2019
Temperature: 35.0°C (95°F)
Dewpoint: 11.0°C (52°F) [RH = 23%]
Pressure (altimeter): 29.85 inches Hg (1011.0 mb)
Winds: variable direction winds at 2 MPH (2 knots; 1.0 m/s)
Visibility: 4 miles ( 6 km)
Ceiling: at least 12,000 feet AGL
Clouds: sky clear below 12,000 feet AGL
Weather: no significant weather observed at this time

METAR text: VTCL 190400Z 00000KT 6000 NSC 33/21 Q1013 NOSIG
Conditions at: VTCL (LAMPANG , TH) observed 0400 UTC 19 March 2019
Temperature: 33.0°C (91°F)
Dewpoint: 21.0°C (70°F) [RH = 49%]
Pressure (altimeter): 29.91 inches Hg (1013.0 mb)
Winds: calm
Visibility: 4 miles ( 6 km)
Ceiling: at least 12,000 feet AGL
Clouds: sky clear below 12,000 feet AGL
Weather: no significant weather observed at this time

METAR text: VTCL 190300Z 28003KT 210V330 6000 NSC 29/20 Q1013 NOSIG
Conditions at: VTCL (LAMPANG , TH) observed 0300 UTC 19 March 2019
Temperature: 29.0°C (84°F)
Dewpoint: 20.0°C (68°F) [RH = 58%]
Pressure (altimeter): 29.91 inches Hg (1013.0 mb)
Winds: from the W (280 degrees) at 3 MPH (3 knots; 1.5 m/s)
Visibility: 4 miles ( 6 km)
Ceiling: at least 12,000 feet AGL
Clouds: sky clear below 12,000 feet AGL
Weather: no significant weather observed at this time

METAR text: VTCL 190200Z 28003KT 220V310 7000 NSC 26/20 Q1013 NOSIG
Conditions at: VTCL (LAMPANG , TH) observed 0200 UTC 19 March 2019
Temperature: 26.0°C (79°F)
Dewpoint: 20.0°C (68°F) [RH = 70%]
Pressure (altimeter): 29.91 inches Hg (1013.0 mb)
Winds: from the W (280 degrees) at 3 MPH (3 knots; 1.5 m/s)
Visibility: 4 miles ( 7 km)
Ceiling: at least 12,000 feet AGL
Clouds: sky clear below 12,000 feet AGL
Weather: no significant weather observed at this time

METAR text: VTCL 190100Z 00000KT 7000 NSC 24/20 Q1012 NOSIG
Conditions at: VTCL (LAMPANG , TH) observed 0100 UTC 19 March 2019
Temperature: 24.0°C (75°F)
Dewpoint: 20.0°C (68°F) [RH = 78%]
Pressure (altimeter): 29.88 inches Hg (1012.0 mb)
Winds: calm
Visibility: 4 miles ( 7 km)
Ceiling: at least 12,000 feet AGL
Clouds: sky clear below 12,000 feet AGL
Weather: no significant weather observed at this time

METAR text: VTCL 190000Z 00000KT 6000 FEW025 22/19 Q1012 NOSIG
Conditions at: VTCL (LAMPANG , TH) observed 0000 UTC 19 March 2019
Temperature: 22.0°C (72°F)
Dewpoint: 19.0°C (66°F) [RH = 83%]
Pressure (altimeter): 29.88 inches Hg (1012.0 mb)
Winds: calm
Visibility: 4 miles ( 6 km)
Ceiling: at least 12,000 feet AGL
Clouds: few clouds at 2500 feet AGL
Weather: no significant weather observed at this time

METAR text: VTCL 182300Z 00000KT 9000 NSC 22/19 Q1011 NOSIG
Conditions at: VTCL (LAMPANG , TH) observed 2300 UTC 18 March 2019
Temperature: 22.0°C (72°F)
Dewpoint: 19.0°C (66°F) [RH = 83%]
Pressure (altimeter): 29.85 inches Hg (1011.0 mb)
Winds: calm
Visibility: 6 miles ( 9 km)
Ceiling: at least 12,000 feet AGL
Clouds: sky clear below 12,000 feet AGL
Weather: no significant weather observed at this time

Forecast for: VTCL (LAMPANG , TH)
Text: TAF VTCL 200500Z 2006/2106 22005KT 9000 FEW030
Forecast period: 0600 UTC 20 March 2019 to 0600 UTC 21 March 2019
Forecast type: FROM: standard forecast or significant change
Winds: from the SW (220 degrees) at 6 MPH (5 knots; 2.6 m/s)
Visibility: 6 miles (9 km)
Ceiling: at least 12,000 feet AGL
Clouds: few clouds at 3000 feet AGL
Weather: no significant weather forecast for this period